Esplugues de Llobregat, Spain
Current Conditions -  °F | °C
As of 2:00 PM on Sunday 23 Nov 2014 (Local Time) from LEBL Reporting Station
Few Clouds Few Clouds  
Wind Chill: 21°   Ceiling: Unl
Heat Index: 21°   Visibility: 6mi
Dew Point: 17°   Wind: 16mph
Humidity: 78%   Direction: 50°NE
Pressure: 30.03"   Gusts: NA
Location:  41.38°N, 2.09°E
Report Text: LEBL 231300Z 05014KT 9999 FEW020 21/17 Q1017 NOSIG
Loading
Personal Weather Stations






























Interactive Weather Map New forecast layout! Learn more

10-Day Weather Forecast

Advertisements
Track Severe Weather on mobile